createdAt,value
2016-12-20T01:50:09.230Z,962.74
2016-12-20T01:51:08.895Z,962.69
2016-12-20T01:52:10.730Z,962.65
2016-12-20T01:53:08.868Z,962.62
2016-12-20T01:54:08.201Z,962.63
2016-12-20T01:55:08.987Z,962.65
2016-12-20T01:56:08.543Z,962.65
2016-12-20T01:57:08.187Z,962.63
2016-12-20T01:58:09.044Z,962.66
2016-12-20T01:59:08.483Z,962.69
2016-12-20T02:00:08.106Z,962.63
2016-12-20T02:01:10.069Z,962.59
2016-12-20T02:02:08.205Z,962.57
2016-12-20T02:03:08.484Z,962.62
2016-12-20T02:04:08.199Z,962.57
2016-12-20T02:05:09.246Z,962.58
2016-12-20T02:06:09.169Z,962.58
2016-12-20T02:07:08.918Z,962.58
2016-12-20T02:08:09.391Z,962.64
2016-12-20T02:09:08.967Z,962.62
2016-12-20T02:10:09.209Z,962.64
2016-12-20T02:11:08.278Z,962.67
2016-12-20T02:12:09.187Z,962.69
2016-12-20T02:13:08.605Z,962.67
2016-12-20T02:14:08.927Z,962.71
2016-12-20T02:15:09.782Z,962.73
2016-12-20T02:16:09.263Z,962.70
2016-12-20T02:17:09.050Z,962.68
2016-12-20T02:18:08.760Z,962.64
2016-12-20T02:19:08.576Z,962.64
2016-12-20T02:20:08.103Z,962.58
2016-12-20T02:21:09.037Z,962.57
2016-12-20T02:22:08.804Z,962.52
2016-12-20T02:23:08.377Z,962.51
2016-12-20T02:24:08.573Z,962.47
2016-12-20T02:25:13.995Z,962.52
2016-12-20T02:26:08.647Z,962.49
2016-12-20T02:27:08.317Z,962.48
2016-12-20T02:28:08.873Z,962.49
2016-12-20T02:29:08.985Z,962.52
2016-12-20T02:30:08.775Z,962.48
2016-12-20T02:31:08.947Z,962.46
2016-12-20T02:32:08.792Z,962.45
2016-12-20T02:33:08.552Z,962.41
2016-12-20T02:34:08.363Z,962.45
2016-12-20T02:35:07.895Z,962.44
2016-12-20T02:36:09.240Z,962.49
2016-12-20T02:37:08.914Z,962.47
2016-12-20T02:38:08.398Z,962.49
2016-12-20T02:39:09.238Z,962.46
2016-12-20T02:40:08.875Z,962.46
2016-12-20T02:41:08.943Z,962.46
2016-12-20T02:42:08.665Z,962.43
2016-12-20T02:43:08.481Z,962.45
2016-12-20T02:44:09.115Z,962.44
2016-12-20T02:45:09.093Z,962.43
2016-12-20T02:46:09.091Z,962.44
2016-12-20T02:47:09.565Z,962.39
2016-12-20T02:48:08.428Z,962.38
2016-12-20T02:49:08.197Z,962.40
2016-12-20T02:50:09.577Z,962.38
2016-12-20T02:51:07.907Z,962.36
2016-12-20T02:52:08.975Z,962.35
2016-12-20T02:53:08.584Z,962.31
2016-12-20T02:54:08.380Z,962.32
2016-12-20T02:55:09.320Z,962.32
2016-12-20T02:56:09.040Z,962.37
2016-12-20T02:57:08.550Z,962.34
2016-12-20T02:58:08.729Z,962.35
2016-12-20T02:59:08.600Z,962.37
2016-12-20T03:00:08.659Z,962.36
2016-12-20T03:01:08.404Z,962.35
2016-12-20T03:02:08.025Z,962.38
2016-12-20T03:03:08.910Z,962.34
2016-12-20T03:04:08.730Z,962.31
2016-12-20T03:05:08.577Z,962.31
2016-12-20T03:06:08.612Z,962.32
2016-12-20T03:07:09.396Z,962.28
2016-12-20T03:08:09.199Z,962.30
2016-12-20T03:09:08.625Z,962.32
2016-12-20T03:10:08.727Z,962.31
2016-12-20T03:11:08.596Z,962.33
2016-12-20T03:12:08.306Z,962.35
2016-12-20T03:13:09.215Z,962.31
2016-12-20T03:14:08.971Z,962.29
2016-12-20T03:15:08.665Z,962.27
2016-12-20T03:16:08.542Z,962.29
2016-12-20T03:17:08.158Z,962.27
2016-12-20T03:18:08.955Z,962.25
2016-12-20T03:19:08.588Z,962.20
2016-12-20T03:20:08.663Z,962.17
2016-12-20T03:21:08.662Z,962.17
2016-12-20T03:22:09.001Z,962.18
2016-12-20T03:23:08.894Z,962.18
2016-12-20T03:24:08.659Z,962.15
2016-12-20T03:25:08.772Z,962.12
2016-12-20T03:26:08.576Z,962.13
2016-12-20T03:27:08.320Z,962.09
2016-12-20T03:28:08.277Z,962.08
2016-12-20T03:29:09.019Z,962.03
2016-12-20T03:30:10.010Z,962.09
2016-12-20T03:31:08.817Z,962.07
2016-12-20T03:32:08.838Z,962.05
2016-12-20T03:33:08.853Z,962.02
2016-12-20T03:34:08.579Z,962.03
2016-12-20T03:35:08.439Z,962.02
2016-12-20T03:36:08.059Z,962.00
2016-12-20T03:37:09.215Z,962.05
2016-12-20T03:38:08.844Z,961.98
2016-12-20T03:39:08.575Z,961.96
2016-12-20T03:40:08.370Z,961.97
2016-12-20T03:41:08.499Z,961.96
2016-12-20T03:42:08.480Z,961.94
2016-12-20T03:43:08.389Z,961.97
2016-12-20T03:44:08.063Z,961.97
2016-12-20T03:45:09.121Z,961.95
2016-12-20T03:46:08.988Z,961.94
2016-12-20T03:47:09.406Z,961.97
2016-12-20T03:48:08.297Z,961.94
2016-12-20T03:49:09.293Z,961.89
2016-12-20T03:50:09.239Z,961.91
2016-12-20T03:51:09.155Z,961.95
2016-12-20T03:52:08.988Z,961.99
2016-12-20T03:53:08.876Z,961.98
2016-12-20T03:54:08.575Z,962.00
2016-12-20T03:55:08.529Z,961.96
2016-12-20T03:56:08.422Z,961.98
2016-12-20T03:57:09.994Z,962.01
2016-12-20T03:58:08.704Z,961.96
2016-12-20T03:59:08.746Z,961.99
2016-12-20T04:00:08.612Z,961.92
2016-12-20T04:01:08.536Z,961.98
2016-12-20T04:02:08.122Z,961.93
2016-12-20T04:03:09.154Z,961.92
2016-12-20T04:04:09.120Z,961.92
2016-12-20T04:05:09.367Z,961.90
2016-12-20T04:06:09.380Z,961.91
2016-12-20T04:07:08.784Z,961.87
2016-12-20T04:08:08.301Z,961.88
2016-12-20T04:09:08.216Z,961.91
2016-12-20T04:10:09.151Z,961.86
2016-12-20T04:11:08.966Z,961.87
2016-12-20T04:12:08.697Z,961.89
2016-12-20T04:13:08.617Z,961.92
2016-12-20T04:14:08.347Z,961.91
2016-12-20T04:15:08.973Z,961.94
2016-12-20T04:16:09.258Z,961.94
2016-12-20T04:17:08.959Z,961.86
2016-12-20T04:18:08.749Z,961.92
2016-12-20T04:19:08.489Z,961.86
2016-12-20T04:20:08.177Z,961.81
2016-12-20T04:21:09.486Z,961.80
2016-12-20T04:22:09.159Z,961.79
2016-12-20T04:23:08.989Z,961.75
2016-12-20T04:24:08.659Z,961.71
2016-12-20T04:25:08.445Z,961.77
2016-12-20T04:26:09.098Z,961.79
2016-12-20T04:27:09.168Z,961.80
2016-12-20T04:28:08.722Z,961.76
2016-12-20T04:29:08.355Z,961.66
2016-12-20T04:30:09.181Z,961.76
2016-12-20T04:31:09.150Z,961.71
2016-12-20T04:32:09.661Z,961.69
2016-12-20T04:33:08.190Z,961.68
2016-12-20T04:34:08.830Z,961.74
2016-12-20T04:35:08.888Z,961.77
2016-12-20T04:36:08.919Z,961.81
2016-12-20T04:37:09.080Z,961.81
2016-12-20T04:38:09.042Z,961.78
2016-12-20T04:39:08.887Z,961.75
2016-12-20T04:40:08.734Z,961.75
2016-12-20T04:41:09.732Z,961.75
2016-12-20T04:42:08.116Z,961.72
2016-12-20T04:43:09.150Z,961.66
2016-12-20T04:44:08.691Z,961.66
2016-12-20T04:45:08.503Z,961.69
2016-12-20T04:46:08.287Z,961.69
2016-12-20T04:47:09.270Z,961.69
2016-12-20T04:48:09.105Z,961.68
2016-12-20T04:49:08.706Z,961.65
2016-12-20T04:50:08.715Z,961.65
2016-12-20T04:51:08.470Z,961.67
2016-12-20T04:52:08.320Z,961.62
2016-12-20T04:53:08.293Z,961.64
2016-12-20T04:54:09.020Z,961.67
2016-12-20T04:55:08.738Z,961.61
2016-12-20T04:56:08.509Z,961.62
2016-12-20T04:57:08.328Z,961.58
2016-12-20T04:58:09.080Z,961.64
2016-12-20T04:59:08.794Z,961.66
2016-12-20T05:00:08.428Z,961.62
2016-12-20T05:01:08.211Z,961.66
2016-12-20T05:02:09.504Z,961.60
2016-12-20T05:03:08.351Z,961.59
2016-12-20T05:04:09.229Z,961.59
2016-12-20T05:05:08.965Z,961.60
2016-12-20T05:06:08.643Z,961.56
2016-12-20T05:07:08.672Z,961.56
2016-12-20T05:08:08.112Z,961.58
2016-12-20T05:09:08.912Z,961.50
2016-12-20T05:10:09.587Z,961.56
2016-12-20T05:11:07.877Z,961.53
2016-12-20T05:12:08.588Z,961.48
2016-12-20T05:13:08.358Z,961.51
2016-12-20T05:14:08.857Z,961.48
2016-12-20T05:15:08.723Z,961.46
2016-12-20T05:16:08.434Z,961.46
2016-12-20T05:17:08.591Z,961.46
2016-12-20T05:18:08.275Z,961.41
2016-12-20T05:19:09.184Z,961.43
2016-12-20T05:20:09.183Z,961.45
2016-12-20T05:21:08.822Z,961.47
2016-12-20T05:22:08.507Z,961.55
2016-12-20T05:23:08.237Z,961.56
2016-12-20T05:24:09.127Z,961.59
2016-12-20T05:25:11.705Z,961.61
2016-12-20T05:26:09.249Z,961.61
2016-12-20T05:27:09.250Z,961.64
2016-12-20T05:28:14.399Z,961.66
2016-12-20T05:29:09.211Z,961.64
2016-12-20T05:30:09.072Z,961.65
2016-12-20T05:31:08.698Z,961.66
2016-12-20T05:32:08.944Z,961.64
2016-12-20T05:33:08.707Z,961.64
2016-12-20T05:34:08.215Z,961.56
2016-12-20T05:35:09.170Z,961.56
2016-12-20T05:36:09.285Z,961.58
2016-12-20T05:37:09.375Z,961.55
2016-12-20T05:38:08.875Z,961.55
2016-12-20T05:39:08.253Z,961.53
2016-12-20T05:40:09.090Z,961.51
2016-12-20T05:41:08.830Z,961.44
2016-12-20T05:42:08.700Z,961.37
2016-12-20T05:43:08.818Z,961.34
2016-12-20T05:44:10.018Z,961.31
2016-12-20T05:45:08.569Z,961.22
2016-12-20T05:46:08.287Z,961.22
2016-12-20T05:47:09.301Z,961.21
2016-12-20T05:48:09.321Z,961.23
2016-12-20T05:49:09.022Z,961.24
2016-12-20T05:50:08.708Z,961.24
2016-12-20T05:51:08.534Z,961.23
2016-12-20T05:52:08.692Z,961.25
2016-12-20T05:53:10.116Z,961.19
2016-12-20T05:54:08.400Z,961.18
2016-12-20T05:55:09.138Z,961.19
2016-12-20T05:56:08.899Z,961.25
2016-12-20T05:57:08.936Z,961.26
2016-12-20T05:58:08.597Z,961.24
2016-12-20T05:59:09.974Z,961.29
2016-12-20T06:00:08.639Z,961.24
2016-12-20T06:01:08.163Z,961.23
2016-12-20T06:02:09.234Z,961.23
2016-12-20T06:03:08.766Z,961.26
2016-12-20T06:04:08.646Z,961.21
2016-12-20T06:05:08.619Z,961.21
2016-12-20T06:06:09.179Z,961.22
2016-12-20T06:07:09.150Z,961.20
2016-12-20T06:08:08.818Z,961.21
2016-12-20T06:09:08.601Z,961.18
2016-12-20T06:10:08.269Z,961.26
2016-12-20T06:11:08.380Z,961.19
2016-12-20T06:12:08.938Z,961.18
2016-12-20T06:13:08.634Z,961.18
2016-12-20T06:14:08.542Z,961.17
2016-12-20T06:15:08.575Z,961.15
2016-12-20T06:16:08.222Z,961.18
2016-12-20T06:17:09.210Z,961.12
2016-12-20T06:18:08.621Z,961.14
2016-12-20T06:19:08.345Z,961.11
2016-12-20T06:20:09.681Z,961.10
2016-12-20T06:21:08.515Z,961.20
2016-12-20T06:22:07.995Z,961.10
2016-12-20T06:23:09.261Z,961.09
2016-12-20T06:24:09.010Z,961.10
2016-12-20T06:25:09.551Z,961.11
2016-12-20T06:26:09.242Z,961.14
2016-12-20T06:27:09.273Z,961.18
2016-12-20T06:28:09.131Z,961.15
2016-12-20T06:29:08.920Z,961.18
2016-12-20T06:30:08.712Z,961.22
2016-12-20T06:31:08.403Z,961.23
2016-12-20T06:32:09.411Z,961.26
2016-12-20T06:33:09.194Z,961.24
2016-12-20T06:34:08.913Z,961.20
2016-12-20T06:35:09.170Z,961.24
2016-12-20T06:36:09.228Z,961.20
2016-12-20T06:37:10.038Z,961.17
2016-12-20T06:38:08.757Z,961.17
2016-12-20T06:39:09.341Z,961.18
2016-12-20T06:40:08.972Z,961.24
2016-12-20T06:41:08.970Z,961.24
2016-12-20T06:42:08.814Z,961.28
2016-12-20T06:43:08.686Z,961.26
2016-12-20T06:44:08.946Z,961.27
2016-12-20T06:45:08.893Z,961.28
2016-12-20T06:46:08.781Z,961.30
2016-12-20T06:47:08.553Z,961.30
2016-12-20T06:48:08.467Z,961.28
2016-12-20T06:49:07.973Z,961.24
2016-12-20T06:50:08.767Z,961.23
2016-12-20T06:51:08.266Z,961.22
2016-12-20T06:52:09.141Z,961.22
2016-12-20T06:53:09.253Z,961.20
2016-12-20T06:54:08.946Z,961.20
2016-12-20T06:55:08.878Z,961.19
2016-12-20T06:56:08.685Z,961.18
2016-12-20T06:57:08.416Z,961.14
2016-12-20T06:58:07.943Z,961.18
2016-12-20T06:59:09.835Z,961.19
2016-12-20T07:00:08.596Z,961.16
2016-12-20T07:01:10.243Z,961.19
2016-12-20T07:02:09.263Z,961.18
2016-12-20T07:03:09.000Z,961.19
2016-12-20T07:04:08.646Z,961.15
2016-12-20T07:05:09.982Z,961.16
2016-12-20T07:06:09.588Z,961.15
2016-12-20T07:07:08.223Z,961.18
2016-12-20T07:08:09.315Z,961.13
2016-12-20T07:09:08.952Z,961.15
2016-12-20T07:10:08.741Z,961.16
2016-12-20T07:11:08.554Z,961.17
2016-12-20T07:12:09.319Z,961.14
2016-12-20T07:13:09.075Z,961.21
2016-12-20T07:14:08.959Z,961.19
2016-12-20T07:15:09.601Z,961.15
2016-12-20T07:16:08.072Z,961.17
2016-12-20T07:17:09.614Z,961.17
2016-12-20T07:18:08.056Z,961.14
2016-12-20T07:19:09.160Z,961.17
2016-12-20T07:20:08.620Z,961.16
2016-12-20T07:21:08.622Z,961.21
2016-12-20T07:22:08.559Z,961.21
2016-12-20T07:23:08.092Z,961.24
2016-12-20T07:24:07.850Z,961.16
2016-12-20T07:25:08.399Z,961.15
2016-12-20T07:26:08.222Z,961.19
2016-12-20T07:27:08.997Z,961.15
2016-12-20T07:28:08.852Z,961.17
2016-12-20T07:29:08.278Z,961.17
2016-12-20T07:30:09.034Z,961.20
2016-12-20T07:31:08.844Z,961.15
2016-12-20T07:32:08.483Z,961.20
2016-12-20T07:33:08.254Z,961.16
2016-12-20T07:34:09.560Z,961.17
2016-12-20T07:35:08.088Z,961.19
2016-12-20T07:36:08.935Z,961.14
2016-12-20T07:37:08.655Z,961.12
2016-12-20T07:38:08.773Z,961.09
2016-12-20T07:39:08.446Z,961.11
2016-12-20T07:40:08.344Z,961.13
2016-12-20T07:41:08.752Z,961.11
2016-12-20T07:42:08.479Z,961.11
2016-12-20T07:43:08.480Z,961.09
2016-12-20T07:44:08.618Z,961.08
2016-12-20T07:45:08.142Z,961.09
2016-12-20T07:46:08.903Z,961.06
2016-12-20T07:47:08.392Z,961.05
2016-12-20T07:48:09.214Z,961.07
2016-12-20T07:49:09.124Z,961.08
2016-12-20T07:50:08.844Z,961.10
2016-12-20T07:51:09.591Z,961.08
2016-12-20T07:52:10.074Z,961.05
2016-12-20T07:53:08.798Z,961.05
2016-12-20T07:54:09.278Z,961.04
2016-12-20T07:55:08.791Z,961.06
2016-12-20T07:56:09.603Z,961.11
2016-12-20T07:57:08.137Z,961.11
2016-12-20T07:58:09.219Z,961.08
2016-12-20T07:59:08.925Z,961.15
2016-12-20T08:00:09.980Z,961.14
2016-12-20T08:01:08.789Z,961.10
2016-12-20T08:02:09.927Z,961.14
2016-12-20T08:03:08.749Z,961.15
2016-12-20T08:04:08.496Z,961.14
2016-12-20T08:05:08.070Z,961.18
2016-12-20T08:06:08.940Z,961.23
2016-12-20T08:07:08.791Z,961.21
2016-12-20T08:08:09.356Z,961.19
2016-12-20T08:09:08.966Z,961.15
2016-12-20T08:10:09.001Z,961.23
2016-12-20T08:11:08.682Z,961.21
2016-12-20T08:12:08.591Z,961.20
2016-12-20T08:13:08.455Z,961.22
2016-12-20T08:14:08.078Z,961.25
2016-12-20T08:15:09.044Z,961.28
2016-12-20T08:16:10.321Z,961.29
2016-12-20T08:17:09.727Z,961.30
2016-12-20T08:18:09.645Z,961.31
2016-12-20T08:19:08.514Z,961.36
2016-12-20T08:20:07.901Z,961.38
2016-12-20T08:21:08.262Z,961.34
2016-12-20T08:22:08.905Z,961.37
2016-12-20T08:23:08.835Z,961.35
2016-12-20T08:24:08.351Z,961.34
2016-12-20T08:25:08.910Z,961.35
2016-12-20T08:26:09.523Z,961.30
2016-12-20T08:27:08.645Z,961.30
2016-12-20T08:28:08.117Z,961.30
2016-12-20T08:29:07.365Z,961.29
2016-12-20T08:30:08.725Z,961.33
2016-12-20T08:31:07.788Z,961.34
2016-12-20T08:32:07.777Z,961.34
2016-12-20T08:33:07.768Z,961.36
2016-12-20T08:34:08.203Z,961.35
2016-12-20T08:35:08.455Z,961.41
2016-12-20T08:36:08.714Z,961.39
2016-12-20T08:37:07.717Z,961.38
2016-12-20T08:38:08.490Z,961.37
2016-12-20T08:39:08.805Z,961.38
2016-12-20T08:40:07.759Z,961.32
2016-12-20T08:41:07.799Z,961.32
2016-12-20T08:42:07.806Z,961.32
2016-12-20T08:43:07.901Z,961.33
2016-12-20T08:44:08.075Z,961.35
2016-12-20T08:45:08.548Z,961.36
2016-12-20T08:46:08.814Z,961.35
2016-12-20T08:47:07.832Z,961.34
2016-12-20T08:48:07.806Z,961.33
2016-12-20T08:49:07.790Z,961.35
2016-12-20T08:50:07.758Z,961.38
2016-12-20T08:51:07.795Z,961.32
2016-12-20T08:52:08.162Z,961.36
2016-12-20T08:53:08.101Z,961.37
2016-12-20T08:54:07.977Z,961.38
2016-12-20T08:55:07.745Z,961.37
2016-12-20T08:56:07.829Z,961.41
2016-12-20T08:57:07.790Z,961.40
2016-12-20T08:58:07.934Z,961.39
2016-12-20T08:59:08.213Z,961.43
2016-12-20T09:00:08.486Z,961.49
2016-12-20T09:01:08.607Z,961.45
2016-12-20T09:02:08.825Z,961.39
2016-12-20T09:03:08.140Z,961.42
2016-12-20T09:04:08.862Z,961.46
2016-12-20T09:05:08.176Z,961.48
2016-12-20T09:06:08.247Z,961.46
2016-12-20T09:07:08.476Z,961.47
2016-12-20T09:08:08.827Z,961.47
2016-12-20T09:09:07.866Z,961.53
2016-12-20T09:10:10.304Z,961.54
2016-12-20T09:11:08.553Z,961.52
2016-12-20T09:12:08.762Z,961.53
2016-12-20T09:13:07.977Z,961.57
2016-12-20T09:14:08.181Z,961.55
2016-12-20T09:15:08.168Z,961.56
2016-12-20T09:16:08.159Z,961.55
2016-12-20T09:17:08.518Z,961.57
2016-12-20T09:18:08.842Z,961.55
2016-12-20T09:19:08.137Z,961.57
2016-12-20T09:20:08.570Z,961.53
2016-12-20T09:21:08.643Z,961.52
2016-12-20T09:22:07.543Z,961.49
2016-12-20T09:23:08.731Z,961.45
2016-12-20T09:24:07.499Z,961.48
2016-12-20T09:25:08.789Z,961.52
2016-12-20T09:26:07.947Z,961.55
2016-12-20T09:27:08.239Z,961.52
2016-12-20T09:28:10.564Z,961.48
2016-12-20T09:29:08.392Z,961.40
2016-12-20T09:30:08.654Z,961.36
2016-12-20T09:31:07.863Z,961.35
2016-12-20T09:32:08.598Z,961.33
2016-12-20T09:33:08.825Z,961.32
2016-12-20T09:34:07.607Z,961.36
2016-12-20T09:35:07.848Z,961.33
2016-12-20T09:36:07.864Z,961.31
2016-12-20T09:37:07.947Z,961.34
2016-12-20T09:38:07.902Z,961.38
2016-12-20T09:39:08.638Z,961.39
2016-12-20T09:40:08.920Z,961.37
2016-12-20T09:41:07.858Z,961.38
2016-12-20T09:42:07.911Z,961.37
2016-12-20T09:43:07.896Z,961.32
2016-12-20T09:44:08.245Z,961.31
2016-12-20T09:45:08.613Z,961.33
2016-12-20T09:46:07.516Z,961.35
2016-12-20T09:47:08.015Z,961.32
2016-12-20T09:48:07.910Z,961.36
2016-12-20T09:49:08.258Z,961.30
2016-12-20T09:50:08.188Z,961.32
2016-12-20T09:51:08.643Z,961.32
2016-12-20T09:52:08.991Z,961.36
2016-12-20T09:53:07.888Z,961.35
2016-12-20T09:54:07.891Z,961.30
2016-12-20T09:55:07.964Z,961.25
2016-12-20T09:56:07.934Z,961.22
2016-12-20T09:57:08.209Z,961.24
2016-12-20T09:58:07.539Z,961.22
2016-12-20T09:59:08.486Z,961.19
2016-12-20T10:00:07.610Z,961.18
2016-12-20T10:01:08.898Z,961.08
2016-12-20T10:02:07.970Z,961.01
2016-12-20T10:03:07.991Z,961.01
2016-12-20T10:04:07.916Z,960.95
2016-12-20T10:05:08.002Z,960.90
2016-12-20T10:06:08.009Z,960.90
2016-12-20T10:07:07.945Z,960.90
2016-12-20T10:08:08.380Z,960.92
2016-12-20T10:09:08.851Z,960.91
2016-12-20T10:10:07.646Z,960.92
2016-12-20T10:11:08.351Z,960.94
2016-12-20T10:12:08.249Z,960.88
2016-12-20T10:13:08.305Z,960.87
2016-12-20T10:14:08.220Z,960.89
2016-12-20T10:15:08.401Z,960.86
2016-12-20T10:16:08.250Z,960.86
2016-12-20T10:17:08.652Z,960.84
2016-12-20T10:18:08.012Z,960.88
2016-12-20T10:19:07.971Z,960.86
2016-12-20T10:20:07.992Z,960.85
2016-12-20T10:21:08.103Z,960.82
2016-12-20T10:22:07.995Z,960.79
2016-12-20T10:23:08.494Z,960.80
2016-12-20T10:24:08.281Z,960.87
2016-12-20T10:25:08.334Z,960.90
2016-12-20T10:26:08.343Z,960.92
2016-12-20T10:27:07.687Z,960.91
2016-12-20T10:28:07.957Z,960.85
2016-12-20T10:29:08.336Z,960.81
2016-12-20T10:30:08.389Z,960.83
2016-12-20T10:31:08.543Z,960.80
2016-12-20T10:32:08.837Z,960.78
2016-12-20T10:33:08.315Z,960.82
2016-12-20T10:34:08.292Z,960.87
2016-12-20T10:35:08.675Z,960.84
2016-12-20T10:36:08.067Z,960.83
2016-12-20T10:37:07.998Z,960.79
2016-12-20T10:38:07.952Z,960.76
2016-12-20T10:39:07.985Z,960.74
2016-12-20T10:40:08.349Z,960.70
2016-12-20T10:41:08.331Z,960.73
2016-12-20T10:42:08.259Z,960.71
2016-12-20T10:43:08.401Z,960.76
2016-12-20T10:44:08.288Z,960.72
2016-12-20T10:45:08.275Z,960.69
2016-12-20T10:46:08.254Z,960.72
2016-12-20T10:47:08.054Z,960.66
2016-12-20T10:48:08.260Z,960.69
2016-12-20T10:49:08.381Z,960.71
2016-12-20T10:50:08.254Z,960.71
2016-12-20T10:51:08.002Z,960.68
2016-12-20T10:52:08.140Z,960.69
2016-12-20T10:53:08.004Z,960.69
2016-12-20T10:54:08.088Z,960.70
2016-12-20T10:55:08.078Z,960.66
2016-12-20T10:56:08.357Z,960.66
2016-12-20T10:57:08.256Z,960.65
2016-12-20T10:58:08.424Z,960.60
2016-12-20T10:59:08.766Z,960.61
2016-12-20T11:00:07.667Z,960.56
2016-12-20T11:01:08.784Z,960.53
2016-12-20T11:02:07.645Z,960.50
2016-12-20T11:03:09.076Z,960.56
2016-12-20T11:04:08.160Z,960.47
2016-12-20T11:05:08.051Z,960.52
2016-12-20T11:06:08.453Z,960.57
2016-12-20T11:07:08.371Z,960.56
2016-12-20T11:08:08.720Z,960.52
2016-12-20T11:09:07.785Z,960.51
2016-12-20T11:10:07.742Z,960.52
2016-12-20T11:11:11.075Z,960.47
2016-12-20T11:12:08.097Z,960.42
2016-12-20T11:13:08.408Z,960.42
2016-12-20T11:14:08.694Z,960.39
2016-12-20T11:15:07.834Z,960.45
2016-12-20T11:16:07.655Z,960.46
2016-12-20T11:17:07.655Z,960.46
2016-12-20T11:18:07.735Z,960.40
2016-12-20T11:19:07.994Z,960.40
2016-12-20T11:20:08.450Z,960.32
2016-12-20T11:21:08.319Z,960.33
2016-12-20T11:22:08.474Z,960.31
2016-12-20T11:23:08.473Z,960.28
2016-12-20T11:24:08.616Z,960.24
2016-12-20T11:25:09.066Z,960.24
2016-12-20T11:26:08.068Z,960.22
2016-12-20T11:27:08.466Z,960.13
2016-12-20T11:28:08.374Z,960.14
2016-12-20T11:29:08.074Z,960.17
2016-12-20T11:30:13.441Z,960.09
2016-12-20T11:31:08.429Z,960.10
2016-12-20T11:32:08.597Z,960.16
2016-12-20T11:33:08.776Z,960.16
2016-12-20T11:34:07.800Z,960.17
2016-12-20T11:35:08.061Z,960.17
2016-12-20T11:36:08.398Z,960.14
2016-12-20T11:37:08.405Z,960.17
2016-12-20T11:38:08.653Z,960.15
2016-12-20T11:39:08.666Z,960.14
2016-12-20T11:40:08.810Z,960.14
2016-12-20T11:41:08.099Z,960.18
2016-12-20T11:42:08.046Z,960.18
2016-12-20T11:43:08.506Z,960.11
2016-12-20T11:44:08.760Z,960.14
2016-12-20T11:45:07.710Z,960.18
2016-12-20T11:46:08.725Z,960.14
2016-12-20T11:47:07.728Z,960.15
2016-12-20T11:48:08.794Z,960.14
2016-12-20T11:49:07.727Z,960.12
2016-12-20T11:50:08.705Z,960.12
2016-12-20T11:51:08.778Z,960.12
2016-12-20T11:52:08.068Z,960.13
2016-12-20T11:53:07.705Z,960.13
2016-12-20T11:54:08.161Z,960.12
2016-12-20T11:55:08.199Z,960.15
2016-12-20T11:56:08.385Z,960.14
2016-12-20T11:57:08.675Z,960.14
2016-12-20T11:58:08.773Z,960.05
2016-12-20T11:59:07.797Z,960.10
2016-12-20T12:00:07.716Z,960.09
2016-12-20T12:01:07.837Z,960.14
2016-12-20T12:02:07.857Z,960.20
2016-12-20T12:03:07.904Z,960.19
2016-12-20T12:04:08.106Z,960.17
2016-12-20T12:05:10.548Z,960.16
2016-12-20T12:06:08.503Z,960.23
2016-12-20T12:07:08.383Z,960.18
2016-12-20T12:08:08.438Z,960.14
2016-12-20T12:09:08.566Z,960.13
2016-12-20T12:10:08.453Z,960.25
2016-12-20T12:11:08.898Z,960.18
2016-12-20T12:12:07.989Z,960.19
2016-12-20T12:13:08.241Z,960.20
2016-12-20T12:14:08.276Z,960.16
2016-12-20T12:15:07.784Z,960.18
2016-12-20T12:16:08.851Z,960.15
2016-12-20T12:17:07.731Z,960.15
2016-12-20T12:18:08.204Z,960.11
2016-12-20T12:19:08.191Z,960.16
2016-12-20T12:20:08.452Z,960.12
2016-12-20T12:21:08.690Z,960.13
2016-12-20T12:22:07.871Z,960.11
2016-12-20T12:23:07.823Z,960.16
2016-12-20T12:24:07.813Z,960.15
2016-12-20T12:25:07.842Z,960.16
2016-12-20T12:26:08.160Z,960.16
2016-12-20T12:27:08.193Z,960.10
2016-12-20T12:28:08.084Z,960.10
2016-12-20T12:29:08.493Z,960.08
2016-12-20T12:30:08.741Z,960.07
2016-12-20T12:31:07.442Z,960.08
2016-12-20T12:32:08.542Z,960.10
2016-12-20T12:33:08.815Z,960.13
2016-12-20T12:34:10.315Z,960.07
2016-12-20T12:35:08.279Z,960.14
2016-12-20T12:36:08.268Z,960.10
2016-12-20T12:37:08.129Z,960.08
2016-12-20T12:38:08.438Z,960.05
2016-12-20T12:39:08.831Z,960.07
2016-12-20T12:40:07.938Z,960.16
2016-12-20T12:41:07.833Z,960.16
2016-12-20T12:42:08.137Z,960.13
2016-12-20T12:43:08.234Z,960.20
2016-12-20T12:44:08.183Z,960.14
2016-12-20T12:45:08.468Z,960.12
2016-12-20T12:46:08.765Z,960.18
2016-12-20T12:47:07.518Z,960.16
2016-12-20T12:48:08.499Z,960.14
2016-12-20T12:49:08.641Z,960.13
2016-12-20T12:50:08.790Z,960.14
2016-12-20T12:51:08.512Z,960.05
2016-12-20T12:52:08.445Z,960.02
2016-12-20T12:53:08.586Z,960.08
2016-12-20T12:54:08.903Z,960.10
2016-12-20T12:55:07.849Z,960.12
2016-12-20T12:56:07.829Z,960.12
2016-12-20T12:57:07.552Z,960.06
2016-12-20T12:58:08.800Z,960.00
2016-12-20T12:59:07.473Z,960.01
2016-12-20T13:00:08.562Z,959.97
2016-12-20T13:01:08.858Z,959.96
2016-12-20T13:02:07.911Z,959.88
2016-12-20T13:03:07.781Z,959.91
2016-12-20T13:04:07.597Z,959.92
2016-12-20T13:05:08.812Z,960.00
2016-12-20T13:06:07.869Z,959.99
2016-12-20T13:07:07.851Z,959.94
2016-12-20T13:08:08.217Z,959.93
2016-12-20T13:09:08.242Z,959.92
2016-12-20T13:10:08.323Z,959.93
2016-12-20T13:11:08.206Z,959.93
2016-12-20T13:12:08.266Z,959.93
2016-12-20T13:13:08.328Z,959.97
2016-12-20T13:14:08.493Z,959.99
2016-12-20T13:15:08.567Z,959.94
2016-12-20T13:16:08.598Z,959.92
2016-12-20T13:17:08.766Z,959.92
2016-12-20T13:18:07.494Z,959.89
2016-12-20T13:19:08.965Z,959.84
2016-12-20T13:20:08.242Z,959.89
2016-12-20T13:21:08.519Z,959.88
2016-12-20T13:22:08.655Z,959.91
2016-12-20T13:23:08.774Z,959.94
2016-12-20T13:24:08.199Z,959.90
2016-12-20T13:25:08.221Z,959.89
2016-12-20T13:26:08.506Z,959.87
2016-12-20T13:27:08.496Z,959.91
2016-12-20T13:28:07.588Z,959.87
2016-12-20T13:29:14.259Z,959.86
2016-12-20T13:30:08.231Z,959.85
2016-12-20T13:31:08.216Z,959.83
2016-12-20T13:32:08.207Z,959.77
2016-12-20T13:33:08.568Z,959.78
2016-12-20T13:34:08.484Z,959.81
2016-12-20T13:35:08.607Z,959.78
2016-12-20T13:36:08.863Z,959.85
2016-12-20T13:37:07.887Z,959.84
2016-12-20T13:38:07.867Z,959.84
2016-12-20T13:39:08.515Z,959.83
2016-12-20T13:40:08.580Z,959.82
2016-12-20T13:41:08.505Z,959.84
2016-12-20T13:42:08.612Z,959.92
2016-12-20T13:43:08.555Z,959.89
2016-12-20T13:44:07.978Z,959.85
2016-12-20T13:45:07.889Z,959.86
2016-12-20T13:46:07.808Z,959.88
2016-12-20T13:47:07.678Z,959.85
2016-12-20T13:48:07.588Z,959.85
2016-12-20T13:49:08.663Z,959.87
2016-12-20T13:50:08.072Z,959.90
2016-12-20T13:51:07.901Z,959.92
2016-12-20T13:52:08.059Z,959.85
2016-12-20T13:53:08.207Z,959.85
2016-12-20T13:54:08.206Z,959.90
2016-12-20T13:55:08.217Z,959.89
2016-12-20T13:56:08.237Z,959.84
2016-12-20T13:57:08.226Z,959.84
2016-12-20T13:58:08.284Z,959.85
2016-12-20T13:59:07.898Z,959.90
2016-12-20T14:00:10.295Z,959.87
2016-12-20T14:01:08.307Z,959.78
2016-12-20T14:02:08.235Z,959.79
2016-12-20T14:03:08.291Z,959.85
2016-12-20T14:04:08.284Z,959.85
2016-12-20T14:05:08.536Z,959.90
2016-12-20T14:06:15.068Z,959.94
2016-12-20T14:07:08.525Z,959.96
2016-12-20T14:08:08.542Z,959.94
2016-12-20T14:09:08.499Z,959.96
2016-12-20T14:10:08.539Z,959.98
2016-12-20T14:11:08.501Z,959.98
2016-12-20T14:12:08.607Z,960.02
2016-12-20T14:13:08.560Z,960.03
2016-12-20T14:14:08.633Z,960.04
2016-12-20T14:15:07.561Z,959.99
2016-12-20T14:16:08.520Z,959.99
2016-12-20T14:17:08.602Z,959.98
2016-12-20T14:18:07.635Z,960.01